createdAt,value
2022-08-14T00:02:07.219Z,97753.00
2022-08-14T00:04:44.711Z,97743.00
2022-08-14T00:07:20.392Z,97750.00
2022-08-14T00:10:49.878Z,97739.00
2022-08-14T00:12:57.222Z,97732.00
2022-08-14T00:15:43.845Z,97720.00
2022-08-14T00:18:31.067Z,97709.00
2022-08-14T00:21:18.856Z,97725.00
2022-08-14T00:23:57.515Z,97715.00
2022-08-14T00:26:36.914Z,97716.00
2022-08-14T00:29:13.277Z,97710.00
2022-08-14T00:31:48.325Z,97707.00
2022-08-14T00:34:35.253Z,97708.00
2022-08-14T00:37:13.392Z,97693.00
2022-08-14T00:39:49.058Z,97688.00
2022-08-14T00:42:55.243Z,97689.00
2022-08-14T00:45:20.522Z,97687.00
2022-08-14T00:47:58.354Z,97675.00
2022-08-14T00:50:35.093Z,97676.00
2022-08-14T00:53:11.317Z,97681.00
2022-08-14T00:55:47.220Z,97677.00
2022-08-14T00:58:33.443Z,97677.00
2022-08-14T01:01:12.706Z,97684.00
2022-08-14T01:03:52.817Z,97681.00
2022-08-14T01:06:30.199Z,97685.00
2022-08-14T01:09:10.508Z,97676.00
2022-08-14T01:11:46.053Z,97677.00
2022-08-14T01:14:37.651Z,97679.00
2022-08-14T01:17:15.722Z,97673.00
2022-08-14T01:20:27.688Z,97670.00
2022-08-14T01:23:10.325Z,97675.00
2022-08-14T01:25:52.118Z,97669.00
2022-08-14T01:28:47.018Z,97670.00
2022-08-14T01:31:26.677Z,97675.00
2022-08-14T01:35:20.114Z,97676.00
2022-08-14T01:37:04.649Z,97677.00
2022-08-14T01:39:43.195Z,97674.00
2022-08-14T01:42:31.110Z,97672.00
2022-08-14T01:45:12.866Z,97670.00
2022-08-14T01:48:03.480Z,97656.00
2022-08-14T01:50:39.332Z,97649.00
2022-08-14T01:53:17.731Z,97657.00
2022-08-14T01:55:57.575Z,97657.00
2022-08-14T01:58:33.126Z,97646.00
2022-08-14T02:01:08.119Z,97642.00
2022-08-14T02:03:49.893Z,97635.00
2022-08-14T02:06:33.072Z,97626.00
2022-08-14T02:09:09.196Z,97635.00
2022-08-14T02:11:57.422Z,97627.00
2022-08-14T02:14:33.086Z,97633.00
2022-08-14T02:17:13.329Z,97627.00
2022-08-14T02:19:49.188Z,97638.00
2022-08-14T02:22:29.248Z,97635.00
2022-08-14T02:25:08.933Z,97636.00
2022-08-14T02:28:25.936Z,97636.00
2022-08-14T02:30:41.063Z,97636.00
2022-08-14T02:33:16.293Z,97636.00
2022-08-14T02:35:53.282Z,97628.00
2022-08-14T02:38:36.879Z,97620.00
2022-08-14T02:41:13.877Z,97615.00
2022-08-14T02:43:48.798Z,97610.00
2022-08-14T02:46:26.961Z,97605.00
2022-08-14T02:49:07.145Z,97600.00
2022-08-14T02:51:42.870Z,97600.00
2022-08-14T02:54:19.618Z,97600.00
2022-08-14T02:57:15.808Z,97591.00
2022-08-14T02:59:53.615Z,97586.00
2022-08-14T03:02:43.394Z,97576.00
2022-08-14T03:05:24.526Z,97574.00
2022-08-14T03:08:15.980Z,97573.00
2022-08-14T03:10:53.796Z,97579.00
2022-08-14T03:13:35.850Z,97575.00
2022-08-14T03:16:20.067Z,97569.00
2022-08-14T03:19:03.048Z,97571.00
2022-08-14T03:21:40.830Z,97570.00
2022-08-14T03:24:22.903Z,97565.00
2022-08-14T03:26:58.353Z,97562.00
2022-08-14T03:29:33.396Z,97563.00
2022-08-14T03:32:10.249Z,97553.00
2022-08-14T03:34:48.496Z,97546.00
2022-08-14T03:39:09.589Z,97546.00
2022-08-14T03:40:25.997Z,97538.00
2022-08-14T03:43:05.589Z,97537.00
2022-08-14T03:45:48.054Z,97537.00
2022-08-14T03:48:30.461Z,97537.00
2022-08-14T03:51:09.097Z,97544.00
2022-08-14T03:53:47.464Z,97541.00
2022-08-14T03:56:26.546Z,97540.00
2022-08-14T03:59:10.293Z,97546.00
2022-08-14T04:01:58.128Z,97543.00
2022-08-14T04:04:38.119Z,97541.00
2022-08-14T04:07:14.518Z,97539.00
2022-08-14T04:09:49.499Z,97550.00
2022-08-14T04:12:26.268Z,97542.00
2022-08-14T04:15:01.792Z,97539.00
2022-08-14T04:17:37.433Z,97532.00
2022-08-14T04:20:13.256Z,97541.00
2022-08-14T04:23:01.613Z,97535.00
2022-08-14T04:25:37.497Z,97533.00
2022-08-14T04:29:07.825Z,97528.00
2022-08-14T04:31:07.526Z,97518.00
2022-08-14T04:33:43.937Z,97518.00
2022-08-14T04:36:19.943Z,97523.00
2022-08-14T04:39:17.558Z,97523.00
2022-08-14T04:42:14.039Z,97521.00
2022-08-14T04:44:49.238Z,97524.00
2022-08-14T04:47:53.708Z,97526.00
2022-08-14T04:50:33.858Z,97526.00
2022-08-14T04:53:35.535Z,97524.00
2022-08-14T04:56:33.525Z,97533.00
2022-08-14T04:59:11.141Z,97535.00
2022-08-14T05:01:49.056Z,97537.00
2022-08-14T05:04:25.816Z,97545.00
2022-08-14T05:07:01.098Z,97537.00
2022-08-14T05:09:36.052Z,97530.00
2022-08-14T05:13:10.659Z,97529.00
2022-08-14T05:15:14.238Z,97531.00
2022-08-14T05:17:58.769Z,97541.00
2022-08-14T05:21:54.684Z,97542.00
2022-08-14T05:23:44.795Z,97544.00
2022-08-14T05:26:21.693Z,97536.00
2022-08-14T05:28:56.612Z,97530.00
2022-08-14T05:31:39.563Z,97533.00
2022-08-14T05:34:15.125Z,97529.00
2022-08-14T05:37:02.066Z,97523.00
2022-08-14T05:39:41.210Z,97532.00
2022-08-14T05:42:21.560Z,97529.00
2022-08-14T05:44:57.478Z,97525.00
2022-08-14T05:47:33.963Z,97522.00
2022-08-14T05:50:17.636Z,97510.00
2022-08-14T05:52:55.079Z,97516.00
2022-08-14T05:55:30.573Z,97518.00
2022-08-14T05:58:08.447Z,97520.00
2022-08-14T06:00:45.380Z,97522.00
2022-08-14T06:03:23.641Z,97526.00
2022-08-14T06:05:59.418Z,97521.00
2022-08-14T06:08:36.063Z,97518.00
2022-08-14T06:11:20.409Z,97514.00
2022-08-14T06:14:06.638Z,97523.00
2022-08-14T06:16:47.577Z,97517.00
2022-08-14T06:19:23.618Z,97521.00
2022-08-14T06:21:59.131Z,97505.00
2022-08-14T06:24:35.768Z,97494.00
2022-08-14T06:27:10.899Z,97495.00
2022-08-14T06:29:45.810Z,97500.00
2022-08-14T06:32:37.645Z,97503.00
2022-08-14T06:35:15.373Z,97496.00
2022-08-14T06:37:56.643Z,97491.00
2022-08-14T06:40:37.129Z,97484.00
2022-08-14T06:43:17.088Z,97480.00
2022-08-14T06:45:54.914Z,97481.00
2022-08-14T06:48:32.727Z,97477.00
2022-08-14T06:51:10.328Z,97467.00
2022-08-14T06:53:47.051Z,97462.00
2022-08-14T06:56:23.147Z,97468.00
2022-08-14T06:58:58.092Z,97472.00
2022-08-14T07:01:56.531Z,97459.00
2022-08-14T07:04:50.137Z,97459.00
2022-08-14T07:07:25.089Z,97460.00
2022-08-14T07:10:05.045Z,97462.00
2022-08-14T07:12:54.583Z,97452.00
2022-08-14T07:15:39.631Z,97448.00
2022-08-14T07:18:22.133Z,97451.00
2022-08-14T07:21:00.039Z,97442.00
2022-08-14T07:23:40.116Z,97445.00
2022-08-14T07:26:15.254Z,97449.00
2022-08-14T07:28:50.161Z,97454.00
2022-08-14T07:31:25.111Z,97449.00
2022-08-14T07:34:00.500Z,97452.00
2022-08-14T07:36:39.090Z,97455.00
2022-08-14T07:39:34.583Z,97458.00
2022-08-14T07:42:10.185Z,97456.00
2022-08-14T07:44:46.470Z,97469.00
2022-08-14T07:47:25.455Z,97461.00
2022-08-14T07:50:12.742Z,97470.00
2022-08-14T07:52:51.640Z,97459.00
2022-08-14T07:55:26.876Z,97466.00
2022-08-14T07:58:05.841Z,97468.00
2022-08-14T08:00:59.503Z,97465.00
2022-08-14T08:03:35.450Z,97462.00
2022-08-14T08:06:17.328Z,97464.00
2022-08-14T08:09:01.143Z,97462.00
2022-08-14T08:11:38.994Z,97459.00
2022-08-14T08:14:17.304Z,97455.00
2022-08-14T08:16:53.079Z,97446.00
2022-08-14T08:19:28.125Z,97444.00
2022-08-14T08:22:11.770Z,97439.00
2022-08-14T08:24:46.684Z,97442.00
2022-08-14T08:27:25.392Z,97444.00
2022-08-14T08:30:10.018Z,97444.00
2022-08-14T08:32:46.336Z,97438.00
2022-08-14T08:35:25.686Z,97437.00
2022-08-14T08:39:14.681Z,97440.00
2022-08-14T08:41:19.932Z,97437.00
2022-08-14T08:44:05.520Z,97432.00
2022-08-14T08:46:43.821Z,97438.00
2022-08-14T08:49:19.366Z,97434.00
2022-08-14T08:52:04.469Z,97435.00
2022-08-14T08:54:39.577Z,97425.00
2022-08-14T08:57:15.681Z,97427.00
2022-08-14T08:59:58.577Z,97425.00
2022-08-14T09:02:34.006Z,97420.00
2022-08-14T09:05:09.641Z,97413.00
2022-08-14T09:07:46.210Z,97407.00
2022-08-14T09:10:27.078Z,97389.00
2022-08-14T09:13:03.197Z,97396.00
2022-08-14T09:15:42.576Z,97401.00
2022-08-14T09:18:20.284Z,97404.00
2022-08-14T09:20:58.796Z,97384.00
2022-08-14T09:23:34.846Z,97397.00
2022-08-14T09:26:29.068Z,97389.00
2022-08-14T09:29:10.535Z,97392.00
2022-08-14T09:31:52.871Z,97397.00
2022-08-14T09:35:21.263Z,97400.00
2022-08-14T09:38:40.598Z,97402.00
2022-08-14T09:42:20.187Z,97395.00
2022-08-14T09:45:24.066Z,97403.00
2022-08-14T09:47:59.840Z,97405.00
2022-08-14T09:50:48.310Z,97401.00
2022-08-14T09:54:19.524Z,97386.00
2022-08-14T09:56:57.176Z,97385.00
2022-08-14T09:59:46.052Z,97388.00
2022-08-14T10:02:28.470Z,97392.00
2022-08-14T10:05:11.416Z,97383.00
2022-08-14T10:07:53.559Z,97376.00
2022-08-14T10:10:39.542Z,97375.00
2022-08-14T10:13:25.895Z,97356.00
2022-08-14T10:16:01.767Z,97358.00
2022-08-14T10:18:37.281Z,97355.00
2022-08-14T10:21:18.161Z,97343.00
2022-08-14T10:23:53.154Z,97348.00
2022-08-14T10:26:28.684Z,97334.00
2022-08-14T10:29:19.591Z,97324.00
2022-08-14T10:31:59.534Z,97310.00
2022-08-14T10:34:38.645Z,97310.00
2022-08-14T10:37:17.975Z,97313.00
2022-08-14T10:40:10.993Z,97304.00
2022-08-14T10:42:57.613Z,97312.00
2022-08-14T10:45:35.745Z,97302.00
2022-08-14T10:48:24.494Z,97308.00
2022-08-14T10:51:11.579Z,97292.00
2022-08-14T10:53:56.895Z,97287.00
2022-08-14T10:56:35.599Z,97281.00
2022-08-14T10:59:11.096Z,97292.00
2022-08-14T11:01:46.007Z,97284.00
2022-08-14T11:04:26.042Z,97279.00
2022-08-14T11:07:02.546Z,97286.00
2022-08-14T11:09:42.021Z,97276.00
2022-08-14T11:12:34.983Z,97281.00
2022-08-14T11:15:12.842Z,97277.00
2022-08-14T11:17:50.708Z,97270.00
2022-08-14T11:20:29.853Z,97270.00
2022-08-14T11:23:09.953Z,97281.00
2022-08-14T11:25:53.302Z,97275.00
2022-08-14T11:28:47.333Z,97290.00
2022-08-14T11:31:24.391Z,97291.00
2022-08-14T11:33:59.734Z,97277.00
2022-08-14T11:37:04.425Z,97280.00
2022-08-14T11:39:34.762Z,97282.00
2022-08-14T11:42:56.388Z,97271.00
2022-08-14T11:45:23.259Z,97279.00
2022-08-14T11:48:13.141Z,97292.00
2022-08-14T11:50:54.466Z,97283.00
2022-08-14T11:53:31.463Z,97274.00
2022-08-14T11:56:06.850Z,97269.00
2022-08-14T11:58:53.089Z,97269.00
2022-08-14T12:01:31.276Z,97261.00
2022-08-14T12:04:31.855Z,97258.00
2022-08-14T12:07:08.407Z,97240.00
2022-08-14T12:09:45.664Z,97240.00
2022-08-14T12:12:35.949Z,97233.00
2022-08-14T12:15:34.842Z,97221.00
2022-08-14T12:18:19.244Z,97228.00
2022-08-14T12:20:59.518Z,97223.00
2022-08-14T12:23:35.274Z,97219.00
2022-08-14T12:26:39.592Z,97221.00
2022-08-14T12:29:16.837Z,97218.00
2022-08-14T12:32:04.462Z,97218.00
2022-08-14T12:34:45.063Z,97212.00
2022-08-14T12:37:30.688Z,97213.00
2022-08-14T12:40:13.953Z,97205.00
2022-08-14T12:42:56.650Z,97212.00
2022-08-14T12:45:34.346Z,97203.00
2022-08-14T12:48:21.112Z,97206.00
2022-08-14T12:51:21.673Z,97204.00
2022-08-14T12:54:26.958Z,97201.00
2022-08-14T12:57:09.202Z,97198.00
2022-08-14T12:59:45.531Z,97194.00
2022-08-14T13:02:27.183Z,97191.00
2022-08-14T13:05:04.485Z,97186.00
2022-08-14T13:07:45.794Z,97179.00
2022-08-14T13:10:47.202Z,97175.00
2022-08-14T13:13:18.495Z,97173.00
2022-08-14T13:15:57.396Z,97163.00
2022-08-14T13:18:33.986Z,97169.00
2022-08-14T13:21:13.930Z,97170.00
2022-08-14T13:23:52.352Z,97159.00
2022-08-14T13:26:28.397Z,97167.00
2022-08-14T13:29:03.858Z,97162.00
2022-08-14T13:31:42.617Z,97160.00
2022-08-14T13:34:22.945Z,97156.00
2022-08-14T13:37:03.756Z,97150.00
2022-08-14T13:39:39.674Z,97146.00
2022-08-14T13:42:14.829Z,97145.00
2022-08-14T13:44:53.881Z,97144.00
2022-08-14T13:47:32.383Z,97146.00
2022-08-14T13:50:12.741Z,97137.00
2022-08-14T13:52:55.396Z,97132.00
2022-08-14T13:55:31.324Z,97125.00
2022-08-14T13:58:11.561Z,97120.00
2022-08-14T14:01:06.754Z,97115.00
2022-08-14T14:03:50.114Z,97114.00
2022-08-14T14:06:26.289Z,97112.00
2022-08-14T14:09:03.344Z,97103.00
2022-08-14T14:11:38.670Z,97111.00
2022-08-14T14:14:44.690Z,97108.00
2022-08-14T14:17:14.564Z,97108.00
2022-08-14T14:19:50.912Z,97102.00
2022-08-14T14:23:01.843Z,97097.00
2022-08-14T14:25:23.044Z,97095.00
2022-08-14T14:27:59.519Z,97091.00
2022-08-14T14:30:52.074Z,97084.00
2022-08-14T14:33:47.635Z,97089.00
2022-08-14T14:36:32.175Z,97082.00
2022-08-14T14:39:08.387Z,97086.00
2022-08-14T14:41:44.677Z,97086.00
2022-08-14T14:44:24.626Z,97079.00
2022-08-14T14:47:01.892Z,97084.00
2022-08-14T14:49:51.443Z,97091.00
2022-08-14T14:52:31.988Z,97083.00
2022-08-14T14:55:17.134Z,97086.00
2022-08-14T14:57:55.059Z,97084.00
2022-08-14T15:00:30.971Z,97077.00
2022-08-14T15:03:07.054Z,97072.00
2022-08-14T15:05:42.828Z,97067.00
2022-08-14T15:08:26.827Z,97066.00
2022-08-14T15:11:13.436Z,97065.00
2022-08-14T15:13:53.142Z,97066.00
2022-08-14T15:16:29.121Z,97057.00
2022-08-14T15:19:05.187Z,97061.00
2022-08-14T15:21:41.059Z,97061.00
2022-08-14T15:24:20.897Z,97061.00
2022-08-14T15:27:00.577Z,97054.00
2022-08-14T15:29:38.756Z,97056.00
2022-08-14T15:32:22.816Z,97054.00
2022-08-14T15:34:58.942Z,97052.00
2022-08-14T15:37:42.461Z,97058.00
2022-08-14T15:40:22.283Z,97054.00
2022-08-14T15:42:57.888Z,97052.00
2022-08-14T15:45:33.980Z,97049.00
2022-08-14T15:48:21.966Z,97053.00
2022-08-14T15:50:58.651Z,97052.00
2022-08-14T15:53:33.934Z,97056.00
2022-08-14T15:56:10.393Z,97055.00
2022-08-14T15:59:05.427Z,97053.00
2022-08-14T16:01:53.433Z,97046.00
2022-08-14T16:04:29.779Z,97053.00
2022-08-14T16:07:06.645Z,97054.00
2022-08-14T16:09:44.393Z,97049.00
2022-08-14T16:12:20.040Z,97046.00
2022-08-14T16:15:16.893Z,97044.00
2022-08-14T16:17:53.301Z,97039.00
2022-08-14T16:26:29.835Z,97050.00
2022-08-14T16:29:15.428Z,97041.00
2022-08-14T16:31:51.151Z,97039.00
2022-08-14T16:34:45.882Z,97036.00
2022-08-14T16:37:22.203Z,97031.00
2022-08-14T16:39:58.616Z,97028.00
2022-08-14T16:40:23.967Z,97040.00
2022-08-14T16:42:38.640Z,97031.00
2022-08-14T16:45:31.800Z,97025.00
2022-08-14T16:48:57.418Z,97030.00
2022-08-14T16:51:07.048Z,97025.00
2022-08-14T16:53:43.394Z,97023.00
2022-08-14T16:56:24.147Z,97027.00
2022-08-14T16:59:21.205Z,97023.00
2022-08-14T17:02:06.661Z,97015.00
2022-08-14T17:04:42.894Z,97021.00
2022-08-14T17:07:24.306Z,97022.00
2022-08-14T17:10:09.679Z,97014.00
2022-08-14T17:12:47.557Z,97018.00
2022-08-14T17:15:22.722Z,97017.00
2022-08-14T17:18:04.559Z,97019.00
2022-08-14T17:21:01.946Z,97022.00
2022-08-14T17:23:39.091Z,97018.00
2022-08-14T17:26:46.826Z,97014.00
2022-08-14T17:29:29.452Z,97016.00
2022-08-14T17:32:22.084Z,97016.00
2022-08-14T17:35:07.570Z,97013.00
2022-08-14T17:37:54.737Z,97011.00
2022-08-14T17:40:31.142Z,97006.00
2022-08-14T17:43:07.169Z,97008.00
2022-08-14T17:45:46.618Z,97013.00
2022-08-14T17:49:13.949Z,97007.00
2022-08-14T17:51:30.028Z,97021.00
2022-08-14T17:54:08.541Z,97025.00
2022-08-14T17:56:44.620Z,97030.00
2022-08-14T17:59:22.854Z,97024.00
2022-08-14T18:02:00.400Z,97029.00
2022-08-14T18:04:36.845Z,97023.00
2022-08-14T18:07:59.994Z,97018.00
2022-08-14T18:10:52.924Z,97017.00
2022-08-14T18:13:10.806Z,97017.00
2022-08-14T18:15:50.959Z,97022.00
2022-08-14T18:18:26.243Z,97025.00
2022-08-14T18:21:24.128Z,97026.00
2022-08-14T18:24:02.345Z,97016.00
2022-08-14T18:26:39.448Z,97021.00
2022-08-14T18:29:16.830Z,97018.00
2022-08-14T18:31:53.879Z,97022.00
2022-08-14T18:34:48.421Z,97017.00
2022-08-14T18:37:26.449Z,97020.00
2022-08-14T18:40:20.140Z,97017.00
2022-08-14T18:43:03.288Z,97028.00
2022-08-14T18:46:00.799Z,97027.00
2022-08-14T18:48:51.467Z,97034.00
2022-08-14T18:51:45.893Z,97032.00
2022-08-14T18:54:32.832Z,97037.00
2022-08-14T18:57:08.968Z,97037.00
2022-08-14T18:59:44.761Z,97035.00
2022-08-14T19:02:30.696Z,97042.00
2022-08-14T19:05:06.647Z,97048.00
2022-08-14T19:07:48.470Z,97052.00
2022-08-14T19:10:31.830Z,97048.00
2022-08-14T19:13:20.442Z,97060.00
2022-08-14T19:16:13.407Z,97052.00
2022-08-14T19:18:53.526Z,97049.00
2022-08-14T19:21:58.082Z,97051.00
2022-08-14T19:24:43.886Z,97055.00
2022-08-14T19:27:24.647Z,97054.00
2022-08-14T19:30:19.760Z,97061.00
2022-08-14T19:33:03.621Z,97049.00
2022-08-14T19:35:49.393Z,97060.00
2022-08-14T19:38:57.297Z,97059.00
2022-08-14T19:41:35.480Z,97060.00
2022-08-14T19:44:19.346Z,97064.00
2022-08-14T19:47:00.985Z,97065.00
2022-08-14T19:50:24.605Z,97073.00
2022-08-14T19:52:41.031Z,97069.00
2022-08-14T19:55:34.156Z,97061.00
2022-08-14T19:58:10.411Z,97059.00
2022-08-14T20:00:57.140Z,97069.00
2022-08-14T20:04:00.043Z,97072.00
2022-08-14T20:06:46.458Z,97065.00
2022-08-14T20:11:08.263Z,97071.00
2022-08-14T20:12:28.788Z,97065.00
2022-08-14T20:15:15.556Z,97067.00
2022-08-14T20:17:53.579Z,97065.00
2022-08-14T20:20:31.656Z,97078.00
2022-08-14T20:23:17.905Z,97069.00
2022-08-14T20:25:56.709Z,97064.00
2022-08-14T20:28:32.795Z,97075.00
2022-08-14T20:31:17.824Z,97077.00
2022-08-14T20:34:24.889Z,97074.00
2022-08-14T20:37:22.107Z,97071.00
2022-08-14T20:39:57.621Z,97075.00
2022-08-14T20:42:53.831Z,97074.00
2022-08-14T20:45:29.372Z,97074.00
2022-08-14T20:48:09.280Z,97081.00
2022-08-14T20:50:46.843Z,97079.00
2022-08-14T20:53:28.813Z,97083.00
2022-08-14T20:56:28.142Z,97076.00
2022-08-14T20:59:25.013Z,97085.00
2022-08-14T21:02:38.788Z,97091.00
2022-08-14T21:05:33.919Z,97091.00
2022-08-14T21:08:22.292Z,97097.00
2022-08-14T21:10:58.993Z,97109.00
2022-08-14T21:14:20.013Z,97115.00
2022-08-14T21:16:35.125Z,97116.00
2022-08-14T21:19:16.266Z,97111.00
2022-08-14T21:21:54.837Z,97119.00
2022-08-14T21:24:40.155Z,97111.00
2022-08-14T21:27:23.589Z,97113.00
2022-08-14T21:29:59.673Z,97117.00
2022-08-14T21:32:50.414Z,97115.00
2022-08-14T21:35:41.723Z,97114.00
2022-08-14T21:38:18.107Z,97118.00
2022-08-14T21:40:55.536Z,97107.00
2022-08-14T21:43:32.180Z,97115.00
2022-08-14T21:46:07.917Z,97116.00
2022-08-14T21:48:44.274Z,97121.00
2022-08-14T21:51:55.445Z,97127.00
2022-08-14T21:54:32.131Z,97132.00
2022-08-14T21:57:13.720Z,97129.00
2022-08-14T21:59:49.919Z,97127.00
2022-08-14T22:02:32.476Z,97126.00
2022-08-14T22:05:11.089Z,97116.00
2022-08-14T22:07:47.359Z,97129.00
2022-08-14T22:10:29.890Z,97125.00
2022-08-14T22:13:07.528Z,97124.00
2022-08-14T22:15:49.419Z,97131.00
2022-08-14T22:18:25.581Z,97128.00
2022-08-14T22:21:00.681Z,97126.00
2022-08-14T22:23:40.967Z,97128.00
2022-08-14T22:26:21.815Z,97125.00
2022-08-14T22:28:57.758Z,97124.00
2022-08-14T22:31:39.589Z,97129.00
2022-08-14T22:34:15.474Z,97134.00
2022-08-14T22:36:54.335Z,97132.00
2022-08-14T22:40:51.072Z,97134.00
2022-08-14T22:42:27.744Z,97135.00
2022-08-14T22:45:12.716Z,97134.00
2022-08-14T22:47:48.049Z,97131.00
2022-08-14T22:50:33.505Z,97129.00
2022-08-14T22:53:10.258Z,97136.00
2022-08-14T22:55:45.284Z,97126.00
2022-08-14T22:58:31.721Z,97131.00
2022-08-14T23:01:16.248Z,97139.00
2022-08-14T23:03:51.833Z,97140.00
2022-08-14T23:07:02.932Z,97137.00
2022-08-14T23:09:35.364Z,97135.00
2022-08-14T23:12:28.533Z,97134.00
2022-08-14T23:15:05.460Z,97137.00
2022-08-14T23:17:42.651Z,97134.00
2022-08-14T23:20:22.165Z,97130.00
2022-08-14T23:22:58.106Z,97135.00
2022-08-14T23:25:59.629Z,97133.00
2022-08-14T23:28:34.191Z,97140.00
2022-08-14T23:31:35.016Z,97136.00
2022-08-14T23:34:20.764Z,97133.00
2022-08-14T23:36:58.146Z,97132.00
2022-08-14T23:39:39.401Z,97127.00
2022-08-14T23:42:17.920Z,97130.00
2022-08-14T23:44:53.179Z,97135.00
2022-08-14T23:47:28.263Z,97131.00
2022-08-14T23:50:07.823Z,97128.00
2022-08-14T23:53:07.469Z,97133.00
2022-08-14T23:55:43.106Z,97125.00
2022-08-14T23:58:29.609Z,97123.00
